createdAt,value
2023-01-07T00:01:13.120Z,6.46
2023-01-07T00:03:40.975Z,6.55
2023-01-07T00:06:10.668Z,6.49
2023-01-07T00:08:39.404Z,6.54
2023-01-07T00:11:08.753Z,6.53
2023-01-07T00:13:36.069Z,6.59
2023-01-07T00:16:05.645Z,6.75
2023-01-07T00:18:32.461Z,6.78
2023-01-07T00:21:05.276Z,6.76
2023-01-07T00:23:34.088Z,6.72
2023-01-07T00:26:06.255Z,6.74
2023-01-07T00:28:38.847Z,6.75
2023-01-07T00:31:08.739Z,6.71
2023-01-07T00:33:35.529Z,6.63
2023-01-07T00:36:03.761Z,6.61
2023-01-07T00:38:30.805Z,6.57
2023-01-07T00:40:57.429Z,6.49
2023-01-07T00:43:24.072Z,6.51
2023-01-07T00:45:50.746Z,6.57
2023-01-07T00:48:19.059Z,6.61
2023-01-07T00:50:48.249Z,6.67
2023-01-07T00:53:14.858Z,6.62
2023-01-07T00:55:41.625Z,6.64
2023-01-07T00:58:07.980Z,6.69
2023-01-07T01:00:34.415Z,6.71
2023-01-07T01:03:01.133Z,6.78
2023-01-07T01:05:27.976Z,6.70
2023-01-07T01:07:54.405Z,6.76
2023-01-07T01:10:21.112Z,6.68
2023-01-07T01:12:50.049Z,6.75
2023-01-07T01:15:16.987Z,6.71
2023-01-07T01:17:43.399Z,6.66
2023-01-07T01:20:13.251Z,6.70
2023-01-07T01:22:39.644Z,6.60
2023-01-07T01:25:06.673Z,6.56
2023-01-07T01:27:33.070Z,6.56
2023-01-07T01:30:00.129Z,6.59
2023-01-07T01:32:26.897Z,6.57
2023-01-07T01:34:53.236Z,6.64
2023-01-07T01:37:19.596Z,6.65
2023-01-07T01:39:46.707Z,6.60
2023-01-07T01:42:25.040Z,6.62
2023-01-07T01:44:56.967Z,6.69
2023-01-07T01:47:49.259Z,6.57
2023-01-07T01:50:27.203Z,6.61
2023-01-07T01:53:05.263Z,6.60
2023-01-07T01:55:38.168Z,6.58
2023-01-07T01:58:19.065Z,6.61
2023-01-07T02:00:45.894Z,6.72
2023-01-07T02:03:18.155Z,6.72
2023-01-07T02:05:45.961Z,6.68
2023-01-07T02:08:12.729Z,6.71
2023-01-07T02:10:39.648Z,6.68
2023-01-07T02:13:17.144Z,6.69
2023-01-07T02:16:12.219Z,6.75
2023-01-07T02:18:44.977Z,6.70
2023-01-07T02:21:23.381Z,6.67
2023-01-07T02:24:02.306Z,6.73
2023-01-07T02:26:46.953Z,6.59
2023-01-07T02:29:40.788Z,6.54
2023-01-07T02:32:15.865Z,6.55
2023-01-07T02:35:10.670Z,6.56
2023-01-07T02:37:51.213Z,6.57
2023-01-07T02:40:28.876Z,6.54
2023-01-07T02:43:27.254Z,6.48
2023-01-07T02:46:20.039Z,6.53
2023-01-07T02:48:47.104Z,6.40
2023-01-07T02:51:13.461Z,6.39
2023-01-07T02:53:45.395Z,6.35
2023-01-07T02:56:33.681Z,6.41
2023-01-07T02:59:25.313Z,6.44
2023-01-07T03:02:10.664Z,6.48
2023-01-07T03:05:08.335Z,6.33
2023-01-07T03:08:06.107Z,6.34
2023-01-07T03:10:43.373Z,6.32
2023-01-07T03:13:16.992Z,6.48
2023-01-07T03:15:52.430Z,6.49
2023-01-07T03:18:25.242Z,6.36
2023-01-07T03:20:58.032Z,6.54
2023-01-07T03:23:27.516Z,6.46
2023-01-07T03:25:56.053Z,6.38
2023-01-07T03:28:27.441Z,6.55
2023-01-07T03:30:57.271Z,6.52
2023-01-07T03:33:47.569Z,6.56
2023-01-07T03:36:18.521Z,6.63
2023-01-07T03:38:46.889Z,6.61
2023-01-07T03:41:33.582Z,6.54
2023-01-07T03:43:59.921Z,6.52
2023-01-07T03:46:26.601Z,6.39
2023-01-07T03:48:53.309Z,6.46
2023-01-07T03:51:19.758Z,6.42
2023-01-07T03:53:46.114Z,6.52
2023-01-07T03:56:12.848Z,6.48
2023-01-07T03:58:39.196Z,6.56
2023-01-07T04:01:06.089Z,6.53
2023-01-07T04:03:32.490Z,6.49
2023-01-07T04:05:58.801Z,6.38
2023-01-07T04:08:25.601Z,6.45
2023-01-07T04:10:51.957Z,6.46
2023-01-07T04:13:18.295Z,6.27
2023-01-07T04:15:45.039Z,6.28
2023-01-07T04:18:11.390Z,6.38
2023-01-07T04:20:37.729Z,6.32
2023-01-07T04:23:04.436Z,6.39
2023-01-07T04:25:32.049Z,6.34
2023-01-07T04:27:58.369Z,6.28
2023-01-07T04:30:25.085Z,6.30
2023-01-07T04:32:52.022Z,6.39
2023-01-07T04:35:18.342Z,6.28
2023-01-07T04:37:44.705Z,6.34
2023-01-07T04:40:11.408Z,6.34
2023-01-07T04:42:38.151Z,6.31
2023-01-07T04:45:04.929Z,6.32
2023-01-07T04:47:31.617Z,6.27
2023-01-07T04:49:57.940Z,6.26
2023-01-07T04:52:24.530Z,6.25
2023-01-07T04:54:51.221Z,6.21
2023-01-07T04:57:17.965Z,6.20
2023-01-07T04:59:45.531Z,6.15
2023-01-07T05:02:11.914Z,6.15
2023-01-07T05:04:38.632Z,6.18
2023-01-07T05:07:05.441Z,6.20
2023-01-07T05:09:31.777Z,6.19
2023-01-07T05:11:58.110Z,6.19
2023-01-07T05:14:24.928Z,6.16
2023-01-07T05:16:51.663Z,6.12
2023-01-07T05:19:19.012Z,6.13
2023-01-07T05:21:45.343Z,6.12
2023-01-07T05:24:12.117Z,6.08
2023-01-07T05:26:38.498Z,6.10
2023-01-07T05:29:04.986Z,6.08
2023-01-07T05:31:31.727Z,6.01
2023-01-07T05:33:58.063Z,6.01
2023-01-07T05:36:24.388Z,6.05
2023-01-07T05:38:51.117Z,5.86
2023-01-07T05:41:17.467Z,5.83
2023-01-07T05:43:43.896Z,5.85
2023-01-07T05:46:10.316Z,5.84
2023-01-07T05:48:36.665Z,5.84
2023-01-07T05:51:03.308Z,5.89
2023-01-07T05:53:29.651Z,5.95
2023-01-07T05:55:58.001Z,5.94
2023-01-07T05:58:24.638Z,5.96
2023-01-07T06:00:51.069Z,5.97
2023-01-07T06:03:17.509Z,6.02
2023-01-07T06:05:44.359Z,6.01
2023-01-07T06:08:10.891Z,5.97
2023-01-07T06:10:37.723Z,5.97
2023-01-07T06:13:04.088Z,5.90
2023-01-07T06:15:31.158Z,5.81
2023-01-07T06:17:57.864Z,5.83
2023-01-07T06:20:24.653Z,5.80
2023-01-07T06:22:51.062Z,5.79
2023-01-07T06:25:17.912Z,5.83
2023-01-07T06:27:44.240Z,5.90
2023-01-07T06:30:11.364Z,5.85
2023-01-07T06:32:39.557Z,5.80
2023-01-07T06:35:07.470Z,5.77
2023-01-07T06:37:34.270Z,5.69
2023-01-07T06:40:01.391Z,5.61
2023-01-07T06:42:28.015Z,5.51
2023-01-07T06:44:54.753Z,5.51
2023-01-07T06:47:21.124Z,5.53
2023-01-07T06:49:47.472Z,5.53
2023-01-07T06:52:14.217Z,5.42
2023-01-07T06:54:40.540Z,5.39
2023-01-07T06:57:06.871Z,5.46
2023-01-07T06:59:33.521Z,5.46
2023-01-07T07:01:59.915Z,5.45
2023-01-07T07:04:26.645Z,5.42
2023-01-07T07:06:52.976Z,5.46
2023-01-07T07:09:19.668Z,5.58
2023-01-07T07:11:46.020Z,5.55
2023-01-07T07:14:12.471Z,5.48
2023-01-07T07:16:39.180Z,5.51
2023-01-07T07:19:05.541Z,5.55
2023-01-07T07:21:32.254Z,5.57
2023-01-07T07:24:00.428Z,5.59
2023-01-07T07:26:26.905Z,5.70
2023-01-07T07:28:53.577Z,5.77
2023-01-07T07:31:19.992Z,5.69
2023-01-07T07:33:46.379Z,5.70
2023-01-07T07:36:12.765Z,5.84
2023-01-07T07:38:39.199Z,5.93
2023-01-07T07:41:05.864Z,5.90
2023-01-07T07:43:35.461Z,5.88
2023-01-07T07:46:02.200Z,5.84
2023-01-07T07:48:28.578Z,5.87
2023-01-07T07:50:55.351Z,5.94
2023-01-07T07:53:21.786Z,5.81
2023-01-07T07:55:48.631Z,5.69
2023-01-07T07:58:15.267Z,5.76
2023-01-07T08:00:41.847Z,5.81
2023-01-07T08:03:08.675Z,5.74
2023-01-07T08:05:35.232Z,5.82
2023-01-07T08:08:02.038Z,5.83
2023-01-07T08:10:29.478Z,5.84
2023-01-07T08:12:55.983Z,5.87
2023-01-07T08:15:22.445Z,5.74
2023-01-07T08:17:56.402Z,5.75
2023-01-07T08:20:23.229Z,6.07
2023-01-07T08:22:49.638Z,6.33
2023-01-07T08:25:16.109Z,6.96
2023-01-07T08:27:42.900Z,7.86
2023-01-07T08:30:10.112Z,8.04
2023-01-07T08:32:37.506Z,7.51
2023-01-07T08:35:05.039Z,7.81
2023-01-07T08:37:32.662Z,7.83
2023-01-07T08:39:59.118Z,8.17
2023-01-07T08:42:26.057Z,8.31
2023-01-07T08:44:52.750Z,8.75
2023-01-07T08:47:19.185Z,8.72
2023-01-07T08:49:45.997Z,7.98
2023-01-07T08:52:12.442Z,8.40
2023-01-07T08:54:39.080Z,8.48
2023-01-07T08:57:05.968Z,8.45
2023-01-07T08:59:32.401Z,8.61
2023-01-07T09:01:59.336Z,9.12
2023-01-07T09:04:25.816Z,8.98
2023-01-07T09:06:52.239Z,9.38
2023-01-07T09:09:19.205Z,8.78
2023-01-07T09:11:45.636Z,9.08
2023-01-07T09:14:12.048Z,9.03
2023-01-07T09:16:38.974Z,8.62
2023-01-07T09:19:05.487Z,8.84
2023-01-07T09:21:31.852Z,8.62
2023-01-07T09:23:58.309Z,9.03
2023-01-07T09:26:24.747Z,8.98
2023-01-07T09:28:51.554Z,8.40
2023-01-07T09:31:17.992Z,8.81
2023-01-07T09:33:44.431Z,9.17
2023-01-07T09:36:11.273Z,9.30
2023-01-07T09:38:37.726Z,9.07
2023-01-07T09:41:04.604Z,9.05
2023-01-07T09:43:58.644Z,8.96
2023-01-07T09:46:28.209Z,9.93
2023-01-07T09:48:59.981Z,9.39
2023-01-07T09:51:30.339Z,8.72
2023-01-07T09:54:01.559Z,8.81
2023-01-07T09:56:34.602Z,7.95
2023-01-07T09:59:02.162Z,7.57
2023-01-07T10:01:38.044Z,7.37
2023-01-07T10:04:16.566Z,7.51
2023-01-07T10:06:53.938Z,7.50
2023-01-07T10:09:36.141Z,7.53
2023-01-07T10:12:40.355Z,7.38
2023-01-07T10:15:25.697Z,7.44
2023-01-07T10:18:12.862Z,7.35
2023-01-07T10:21:14.618Z,7.61
2023-01-07T10:23:46.172Z,7.53
2023-01-07T10:26:34.267Z,7.54
2023-01-07T10:29:13.536Z,7.47
2023-01-07T10:31:41.620Z,7.60
2023-01-07T10:34:18.615Z,7.67
2023-01-07T10:37:28.122Z,7.64
2023-01-07T10:40:12.892Z,7.70
2023-01-07T10:43:14.534Z,7.75
2023-01-07T10:46:11.556Z,7.70
2023-01-07T10:49:28.889Z,7.81
2023-01-07T10:52:08.829Z,7.77
2023-01-07T10:55:00.348Z,7.69
2023-01-07T10:57:30.247Z,7.76
2023-01-07T11:00:03.053Z,7.93
2023-01-07T11:02:30.132Z,7.96
2023-01-07T11:04:58.465Z,7.90
2023-01-07T11:07:44.408Z,8.08
2023-01-07T11:10:20.749Z,7.92
2023-01-07T11:12:54.431Z,8.10
2023-01-07T11:15:32.489Z,8.00
2023-01-07T11:18:02.244Z,8.06
2023-01-07T11:20:52.591Z,8.18
2023-01-07T11:23:36.437Z,7.93
2023-01-07T11:26:25.300Z,8.09
2023-01-07T11:29:10.189Z,8.28
2023-01-07T11:31:43.129Z,8.10
2023-01-07T11:34:30.425Z,8.13
2023-01-07T11:36:57.391Z,7.98
2023-01-07T11:39:29.808Z,8.29
2023-01-07T11:41:59.190Z,8.27
2023-01-07T11:44:26.695Z,8.44
2023-01-07T11:46:54.448Z,8.65
2023-01-07T11:49:28.119Z,8.32
2023-01-07T11:51:55.170Z,8.00
2023-01-07T11:54:32.031Z,8.28
2023-01-07T11:57:13.213Z,8.20
2023-01-07T11:59:39.989Z,8.36
2023-01-07T12:02:24.545Z,8.34
2023-01-07T12:04:51.474Z,8.27
2023-01-07T12:07:18.199Z,8.44
2023-01-07T12:09:46.401Z,8.29
2023-01-07T12:12:34.771Z,8.36
2023-01-07T12:15:20.834Z,8.42
2023-01-07T12:17:50.480Z,8.25
2023-01-07T12:20:28.574Z,8.18
2023-01-07T12:23:00.913Z,8.29
2023-01-07T12:26:03.011Z,8.38
2023-01-07T12:28:47.313Z,8.36
2023-01-07T12:31:39.055Z,8.40
2023-01-07T12:34:19.665Z,8.60
2023-01-07T12:36:48.744Z,8.44
2023-01-07T12:39:23.328Z,8.53
2023-01-07T12:44:51.842Z,8.51
2023-01-07T12:47:31.764Z,8.52
2023-01-07T12:50:11.041Z,8.38
2023-01-07T12:52:52.680Z,8.36
2023-01-07T12:55:28.620Z,8.29
2023-01-07T12:58:17.987Z,8.28
2023-01-07T13:00:49.590Z,8.27
2023-01-07T13:03:25.165Z,8.32
2023-01-07T13:06:08.850Z,8.35
2023-01-07T13:08:41.013Z,8.28
2023-01-07T13:11:18.460Z,8.38
2023-01-07T13:13:49.539Z,8.34
2023-01-07T13:16:16.126Z,8.18
2023-01-07T13:18:42.850Z,8.30
2023-01-07T13:21:12.603Z,8.17
2023-01-07T13:23:51.387Z,8.14
2023-01-07T13:26:46.984Z,8.08
2023-01-07T13:29:24.796Z,7.93
2023-01-07T13:32:12.474Z,8.02
2023-01-07T13:35:03.857Z,8.03
2023-01-07T13:37:49.251Z,7.93
2023-01-07T13:40:22.525Z,7.85
2023-01-07T13:43:13.378Z,7.82
2023-01-07T13:45:41.064Z,7.68
2023-01-07T13:48:23.951Z,7.70
2023-01-07T13:51:02.441Z,7.69
2023-01-07T13:53:33.949Z,7.57
2023-01-07T13:56:23.662Z,7.49
2023-01-07T13:58:50.251Z,7.41
2023-01-07T14:01:19.062Z,7.42
2023-01-07T14:04:03.196Z,7.30
2023-01-07T14:06:29.729Z,7.25
2023-01-07T14:09:05.210Z,7.19
2023-01-07T14:11:35.499Z,7.11
2023-01-07T14:14:08.009Z,7.03
2023-01-07T14:16:43.555Z,6.97
2023-01-07T14:19:45.325Z,6.95
2023-01-07T14:22:44.295Z,6.90
2023-01-07T14:25:48.290Z,6.87
2023-01-07T14:28:43.605Z,6.81
2023-01-07T14:31:23.282Z,6.68
2023-01-07T14:33:54.107Z,6.54
2023-01-07T14:36:20.567Z,6.50
2023-01-07T14:38:57.709Z,6.46
2023-01-07T14:41:24.820Z,6.39
2023-01-07T14:44:28.029Z,6.33
2023-01-07T14:46:54.623Z,6.31
2023-01-07T14:49:40.295Z,6.25
2023-01-07T14:52:19.521Z,6.20
2023-01-07T14:55:23.123Z,6.12
2023-01-07T14:58:08.469Z,6.08
2023-01-07T15:00:44.045Z,5.99
2023-01-07T15:03:36.413Z,5.83
2023-01-07T15:06:41.882Z,5.64
2023-01-07T15:09:33.322Z,5.52
2023-01-07T15:12:26.291Z,5.41
2023-01-07T15:15:29.981Z,5.31
2023-01-07T15:17:56.610Z,5.20
2023-01-07T15:20:28.785Z,5.19
2023-01-07T15:23:10.755Z,5.08
2023-01-07T15:26:15.855Z,4.85
2023-01-07T15:28:57.985Z,4.68
2023-01-07T15:31:47.229Z,4.59
2023-01-07T15:34:18.416Z,4.53
2023-01-07T15:36:49.416Z,4.56
2023-01-07T15:39:41.076Z,4.47
2023-01-07T15:42:15.361Z,4.28
2023-01-07T15:44:42.718Z,4.12
2023-01-07T15:47:31.055Z,4.06
2023-01-07T15:49:57.915Z,4.01
2023-01-07T15:52:27.269Z,3.70
2023-01-07T15:54:54.065Z,3.32
2023-01-07T15:57:30.335Z,3.12
2023-01-07T15:59:57.579Z,3.11
2023-01-07T16:02:40.971Z,3.03
2023-01-07T16:05:09.224Z,2.95
2023-01-07T16:07:50.892Z,2.77
2023-01-07T16:10:30.381Z,2.63
2023-01-07T16:13:01.102Z,2.64
2023-01-07T16:15:30.764Z,2.62
2023-01-07T16:17:59.819Z,2.64
2023-01-07T16:20:31.325Z,2.60
2023-01-07T16:23:09.946Z,2.51
2023-01-07T16:25:44.798Z,2.50
2023-01-07T16:28:18.417Z,2.55
2023-01-07T16:30:46.872Z,2.58
2023-01-07T16:33:17.071Z,2.60
2023-01-07T16:35:47.108Z,2.56
2023-01-07T16:38:15.906Z,2.60
2023-01-07T16:40:42.682Z,2.51
2023-01-07T16:43:43.614Z,2.35
2023-01-07T16:46:13.029Z,2.22
2023-01-07T16:48:39.448Z,2.05
2023-01-07T16:51:37.316Z,2.12
2023-01-07T16:54:23.269Z,2.08
2023-01-07T16:57:02.456Z,2.02
2023-01-07T16:59:45.403Z,2.08
2023-01-07T17:02:52.608Z,2.03
2023-01-07T17:05:23.753Z,1.88
2023-01-07T17:08:00.831Z,1.73
2023-01-07T17:10:33.229Z,1.58
2023-01-07T17:13:27.965Z,1.49
2023-01-07T17:16:23.204Z,1.38
2023-01-07T17:18:50.445Z,1.42
2023-01-07T17:21:37.950Z,1.37
2023-01-07T17:24:06.516Z,1.29
2023-01-07T17:26:40.655Z,1.20
2023-01-07T17:29:13.542Z,1.20
2023-01-07T17:31:40.645Z,1.18
2023-01-07T17:34:10.177Z,1.22
2023-01-07T17:36:36.944Z,1.30
2023-01-07T17:39:04.305Z,1.38
2023-01-07T17:41:53.883Z,1.53
2023-01-07T17:44:20.367Z,1.68
2023-01-07T17:46:46.793Z,1.55
2023-01-07T17:49:13.642Z,1.34
2023-01-07T17:51:42.761Z,1.16
2023-01-07T17:54:20.880Z,1.05
2023-01-07T17:56:48.228Z,1.07
2023-01-07T17:59:23.397Z,1.16
2023-01-07T18:01:54.731Z,1.13
2023-01-07T18:04:21.605Z,1.08
2023-01-07T18:06:48.514Z,1.05
2023-01-07T18:09:14.908Z,0.95
2023-01-07T18:12:03.926Z,0.94
2023-01-07T18:14:32.232Z,0.92
2023-01-07T18:16:58.671Z,0.89
2023-01-07T18:19:25.436Z,0.79
2023-01-07T18:21:51.854Z,0.72
2023-01-07T18:24:21.178Z,0.60
2023-01-07T18:26:47.662Z,0.59
2023-01-07T18:29:14.444Z,0.66
2023-01-07T18:31:43.068Z,0.86
2023-01-07T18:34:10.933Z,0.97
2023-01-07T18:36:38.067Z,1.02
2023-01-07T18:39:06.739Z,1.05
2023-01-07T18:41:33.802Z,1.09
2023-01-07T18:44:01.036Z,0.93
2023-01-07T18:46:27.481Z,0.83
2023-01-07T18:48:54.157Z,0.64
2023-01-07T18:51:21.187Z,0.56
2023-01-07T18:53:47.636Z,0.58
2023-01-07T18:56:14.090Z,0.47
2023-01-07T18:58:43.225Z,0.42
2023-01-07T19:01:11.124Z,0.31
2023-01-07T19:03:37.992Z,0.34
2023-01-07T19:06:09.528Z,0.35
2023-01-07T19:08:36.365Z,0.40
2023-01-07T19:11:09.635Z,0.41
2023-01-07T19:13:36.364Z,0.26
2023-01-07T19:16:11.957Z,0.14
2023-01-07T19:18:38.995Z,0.14
2023-01-07T19:21:08.218Z,0.05
2023-01-07T19:23:34.667Z,0.14
2023-01-07T19:26:04.263Z,0.30
2023-01-07T19:28:32.619Z,0.28
2023-01-07T19:30:59.879Z,0.19
2023-01-07T19:33:26.669Z,0.16
2023-01-07T19:36:01.755Z,0.00
2023-01-07T19:38:28.262Z,-0.20
2023-01-07T19:40:54.774Z,0.01
2023-01-07T19:43:21.644Z,0.18
2023-01-07T19:45:59.979Z,0.27
2023-01-07T19:48:26.529Z,0.26
2023-01-07T19:50:54.801Z,0.25
2023-01-07T19:53:21.626Z,0.06
2023-01-07T19:55:48.050Z,-0.01
2023-01-07T19:58:15.004Z,-0.14
2023-01-07T20:00:41.490Z,-0.32
2023-01-07T20:03:07.954Z,-0.47
2023-01-07T20:05:34.520Z,-0.42
2023-01-07T20:08:00.979Z,-0.46
2023-01-07T20:10:27.661Z,-0.59
2023-01-07T20:12:54.122Z,-0.61
2023-01-07T20:15:20.648Z,-0.61
2023-01-07T20:17:47.064Z,-0.61
2023-01-07T20:20:13.917Z,-0.59
2023-01-07T20:22:40.426Z,-0.54
2023-01-07T20:25:07.989Z,-0.38
2023-01-07T20:27:38.391Z,-0.21
2023-01-07T20:30:06.668Z,0.22
2023-01-07T20:32:33.398Z,0.72
2023-01-07T20:35:00.426Z,0.81
2023-01-07T20:37:28.049Z,0.94
2023-01-07T20:39:55.525Z,0.89
2023-01-07T20:42:22.324Z,0.86
2023-01-07T20:44:51.547Z,0.93
2023-01-07T20:47:18.644Z,1.00
2023-01-07T20:49:45.666Z,1.01
2023-01-07T20:52:12.091Z,1.02
2023-01-07T20:54:38.945Z,1.07
2023-01-07T20:57:05.567Z,1.16
2023-01-07T20:59:32.001Z,1.18
2023-01-07T21:01:58.986Z,1.23
2023-01-07T21:04:28.902Z,1.14
2023-01-07T21:06:55.556Z,1.15
2023-01-07T21:09:22.507Z,1.10
2023-01-07T21:11:48.966Z,0.94
2023-01-07T21:14:15.806Z,0.73
2023-01-07T21:16:42.331Z,0.51
2023-01-07T21:19:08.819Z,0.39
2023-01-07T21:21:35.368Z,0.24
2023-01-07T21:24:01.797Z,0.06
2023-01-07T21:26:28.253Z,-0.09
2023-01-07T21:28:59.002Z,-0.11
2023-01-07T21:31:26.561Z,-0.12
2023-01-07T21:33:55.583Z,-0.24
2023-01-07T21:36:23.900Z,-0.41
2023-01-07T21:38:55.803Z,-0.48
2023-01-07T21:41:24.053Z,-0.54
2023-01-07T21:43:50.790Z,-0.62
2023-01-07T21:46:17.899Z,-0.67
2023-01-07T21:48:46.857Z,-0.72
2023-01-07T21:51:20.568Z,-0.65
2023-01-07T21:53:47.164Z,-0.60
2023-01-07T21:56:16.526Z,-0.57
2023-01-07T21:58:44.879Z,-0.56
2023-01-07T22:01:12.287Z,-0.57
2023-01-07T22:03:39.458Z,-0.42
2023-01-07T22:06:13.519Z,-0.30
2023-01-07T22:08:40.344Z,-0.38
2023-01-07T22:11:06.866Z,-0.47
2023-01-07T22:13:33.868Z,-0.52
2023-01-07T22:16:03.161Z,-0.55
2023-01-07T22:18:29.622Z,-0.66
2023-01-07T22:20:56.138Z,-0.74
2023-01-07T22:23:22.791Z,-0.79
2023-01-07T22:25:49.482Z,-0.83
2023-01-07T22:28:23.608Z,-0.80
2023-01-07T22:30:54.985Z,-0.71
2023-01-07T22:33:22.642Z,-0.50
2023-01-07T22:35:51.023Z,-0.56
2023-01-07T22:38:19.718Z,-0.59
2023-01-07T22:40:46.268Z,-0.66
2023-01-07T22:43:15.602Z,-0.73
2023-01-07T22:45:51.093Z,-0.76
2023-01-07T22:48:23.822Z,-0.90
2023-01-07T22:50:53.650Z,-0.93
2023-01-07T22:53:20.203Z,-0.98
2023-01-07T22:55:48.816Z,-0.92
2023-01-07T22:58:18.109Z,-0.82
2023-01-07T23:00:50.596Z,-0.81
2023-01-07T23:03:22.273Z,-0.92
2023-01-07T23:05:49.806Z,-0.96
2023-01-07T23:08:16.614Z,-0.98
2023-01-07T23:10:44.254Z,-1.05
2023-01-07T23:13:11.690Z,-1.12
2023-01-07T23:15:39.546Z,-1.15
2023-01-07T23:18:09.230Z,-0.82
2023-01-07T23:20:40.800Z,-0.80
2023-01-07T23:23:07.749Z,-0.79
2023-01-07T23:25:34.518Z,-0.83
2023-01-07T23:28:01.148Z,-0.94
2023-01-07T23:30:27.996Z,-1.02
2023-01-07T23:32:54.523Z,-1.17
2023-01-07T23:35:20.997Z,-1.22
2023-01-07T23:37:47.773Z,-1.23
2023-01-07T23:40:14.354Z,-1.32
2023-01-07T23:42:40.946Z,-1.39
2023-01-07T23:45:07.858Z,-1.35
2023-01-07T23:47:34.353Z,-1.31
2023-01-07T23:50:01.248Z,-1.34
2023-01-07T23:52:27.784Z,-1.38
2023-01-07T23:54:54.228Z,-1.40
2023-01-07T23:57:20.985Z,-1.46
2023-01-07T23:59:47.392Z,-1.45
